メインページ
METAR-TAF:

METAR-TAF

空港 :

Upshur County Regional Airport

Buckhannon, ウェストバージニア州, アメリカ合衆国

緯度: 39-00N, 経度: 080-16W, 海抜: 498m

現時点の気象観測

当レポートは31分前の18:15(UTC)に作成
変向風 4kt
気温 32°C
湿度 43%
気圧 1020 hPa
視程: 9.7km
晴天
煙霧

METAR: KW22 261815Z AUTO VRB04KT 6SM HZ CLR 32/18 A3012 RMK AO2

時間: 14:46 (18:46 UTC)


TAF: 見つかりません

4,000以上の空港の気象観測と天気予報(METAR報とTAF報)

利用可能な観測所は地図上に黄色い丸と赤い丸で示す。

丸の上にカーソルを重ねると観測所名を参照できる。

次にクリックすると気象観測と天気予報を参照できる。

マップの切り替え:黒色「×」印の緑ボタンをクリックして拡大、「-」印の緑ボタンをクリックして縮小、緑色の三角印をクリックして隣りの地図に切り替え


METAR-TAF: